Time;durP1;ratioP1;P1;durP2;ratioP2;P2;SDS_P1;SDS_P2;PMS_P1;PMS_P2;Temp;Humidity;BMP_temperature;BMP_pressure;BME280_temperature;BME280_humidity;BME280_pressure;Samples;Min_cycle;Max_cycle;Signal;HPM_P1;HPM_P2
2021/07/13 00:02:23;;;;;;;6.83;4.07;;;17.30;99.90;;;;;;5077500;28;20166;-66
2021/07/13 00:04:50;;;;;;;3.50;3.30;;;17.30;99.90;;;;;;5077325;28;20174;-65
2021/07/13 00:07:16;;;;;;;4.00;3.70;;;17.30;99.90;;;;;;5077184;28;20201;-65
2021/07/13 00:09:42;;;;;;;4.33;4.13;;;17.30;99.90;;;;;;5076906;28;20405;-65
2021/07/13 00:12:09;;;;;;;4.23;3.87;;;17.30;99.90;;;;;;5077342;28;20405;-65
2021/07/13 00:14:35;;;;;;;3.70;3.50;;;17.30;99.90;;;;;;5077285;28;20344;-66
2021/07/13 00:17:05;;;;;;;4.20;4.00;;;17.30;99.90;;;;;;5077223;28;20795;-66
2021/07/13 00:19:31;;;;;;;4.23;3.90;;;17.30;99.90;;;;;;5077103;28;20493;-65
2021/07/13 00:21:57;;;;;;;4.70;4.40;;;17.30;99.90;;;;;;5076853;28;20484;-65
2021/07/13 00:24:22;;;;;;;3.50;3.30;;;17.20;99.90;;;;;;5076839;28;20171;-66
2021/07/13 00:26:48;;;;;;;4.23;3.93;;;17.30;99.90;;;;;;5077187;28;20180;-66
2021/07/13 00:29:13;;;;;;;4.00;3.60;;;17.20;99.90;;;;;;5076795;28;20163;-66
2021/07/13 00:31:39;;;;;;;4.20;3.90;;;17.30;99.90;;;;;;5076981;28;20236;-66
2021/07/13 00:34:05;;;;;;;3.40;3.20;;;17.20;99.90;;;;;;5077247;28;20179;-66
2021/07/13 00:36:30;;;;;;;5.03;4.53;;;17.20;99.90;;;;;;5077074;28;20655;-66
2021/07/13 00:38:56;;;;;;;4.87;4.57;;;17.20;99.90;;;;;;5076703;28;20406;-65
2021/07/13 00:41:22;;;;;;;4.27;3.97;;;17.20;99.90;;;;;;5077472;28;20203;-65
2021/07/13 00:43:48;;;;;;;6.80;4.07;;;17.20;99.90;;;;;;5077105;28;20174;-65
2021/07/13 00:46:13;;;;;;;4.00;3.80;;;17.20;99.90;;;;;;5075422;28;20188;-65
2021/07/13 00:48:39;;;;;;;5.40;4.90;;;17.20;99.90;;;;;;5076819;28;20436;-65
2021/07/13 00:51:05;;;;;;;4.20;3.90;;;17.10;99.90;;;;;;5076679;28;20658;-66
2021/07/13 00:53:31;;;;;;;4.30;4.00;;;17.10;99.90;;;;;;5077223;28;20213;-65
2021/07/13 00:55:57;;;;;;;4.30;4.00;;;17.10;99.90;;;;;;5076247;28;20591;-65
2021/07/13 00:58:24;;;;;;;4.10;3.90;;;17.10;99.90;;;;;;5076892;28;20413;-65
2021/07/13 01:00:50;;;;;;;4.83;4.53;;;17.10;99.90;;;;;;5076787;28;20996;-66
2021/07/13 01:03:16;;;;;;;4.20;4.00;;;17.00;99.90;;;;;;5076649;28;20402;-65
2021/07/13 01:05:47;;;;;;;5.33;4.97;;;17.00;99.90;;;;;;5078095;28;20405;-66
2021/07/13 01:08:33;;;;;;;4.90;4.50;;;17.00;99.90;;;;;;5078794;28;20199;-66
2021/07/13 01:11:11;;;;;;;4.40;4.10;;;17.00;99.90;;;;;;5080438;28;20547;-66
2021/07/13 01:14:02;;;;;;;7.27;4.77;;;17.00;99.90;;;;;;5080687;28;20800;-66
2021/07/13 01:16:38;;;;;;;4.30;4.00;;;17.00;99.90;;;;;;5079655;28;20486;-65
2021/07/13 01:19:25;;;;;;;4.07;3.77;;;17.00;99.90;;;;;;5080493;28;20752;-66
2021/07/13 01:22:16;;;;;;;4.40;4.10;;;17.00;99.90;;;;;;5080473;28;20449;-66
2021/07/13 01:25:03;;;;;;;5.00;3.90;;;17.00;99.90;;;;;;5080429;28;20431;-66
2021/07/13 01:27:43;;;;;;;5.20;4.90;;;17.00;99.90;;;;;;5081396;28;20428;-66
2021/07/13 01:30:14;;;;;;;6.17;4.57;;;16.90;99.90;;;;;;5081279;28;20417;-66
2021/07/13 01:32:43;;;;;;;4.47;4.13;;;16.90;99.90;;;;;;5076419;28;20413;-65
2021/07/13 01:35:15;;;;;;;4.20;3.80;;;16.90;99.90;;;;;;5074377;28;20440;-66
2021/07/13 01:37:44;;;;;;;4.47;4.17;;;16.90;99.90;;;;;;5073896;28;20455;-65
2021/07/13 01:40:11;;;;;;;4.70;4.40;;;17.00;99.90;;;;;;5074323;28;20393;-65
2021/07/13 01:42:40;;;;;;;5.40;5.03;;;17.00;99.90;;;;;;5074010;28;20437;-65
2021/07/13 01:45:07;;;;;;;5.33;4.70;;;16.90;99.90;;;;;;5074159;28;20398;-65
2021/07/13 01:47:38;;;;;;;6.83;4.10;;;17.00;99.90;;;;;;5073753;28;20468;-65
2021/07/13 01:50:10;;;;;;;5.03;4.73;;;17.00;99.90;;;;;;5073944;28;20398;-65
2021/07/13 01:52:38;;;;;;;5.10;4.70;;;17.00;99.90;;;;;;5074034;28;20757;-65
2021/07/13 01:55:05;;;;;;;4.73;4.43;;;17.00;99.90;;;;;;5073952;28;20406;-65
2021/07/13 01:57:32;;;;;;;4.70;4.13;;;17.00;99.90;;;;;;5073814;28;20421;-65
2021/07/13 02:00:00;;;;;;;4.50;4.20;;;17.00;99.90;;;;;;5073727;28;20413;-65
2021/07/13 02:02:28;;;;;;;4.43;4.13;;;17.00;99.90;;;;;;5073768;28;20484;-66
2021/07/13 02:04:55;;;;;;;6.33;5.83;;;17.00;99.90;;;;;;5073585;28;20402;-65
2021/07/13 02:07:23;;;;;;;4.60;4.30;;;17.00;99.90;;;;;;5073344;28;20470;-66
2021/07/13 02:09:48;;;;;;;5.00;4.60;;;17.00;99.90;;;;;;5073554;28;20412;-65
2021/07/13 02:12:14;;;;;;;5.20;4.87;;;17.00;99.90;;;;;;5073643;28;20757;-66
2021/07/13 02:14:40;;;;;;;4.70;4.30;;;17.00;99.90;;;;;;5073572;28;20194;-65
2021/07/13 02:17:06;;;;;;;6.70;4.43;;;17.00;99.90;;;;;;5073030;28;20930;-66
2021/07/13 02:19:31;;;;;;;4.40;4.10;;;16.90;99.90;;;;;;5073761;28;20171;-66
2021/07/13 02:21:57;;;;;;;4.63;4.33;;;16.90;99.90;;;;;;5073472;28;20274;-66
2021/07/13 02:24:23;;;;;;;4.50;4.20;;;17.00;99.90;;;;;;5073361;28;20163;-65
2021/07/13 02:27:03;;;;;;;6.77;4.27;;;17.00;99.90;;;;;;5073054;28;20420;-65
2021/07/13 02:29:37;;;;;;;4.50;3.90;;;16.90;99.90;;;;;;5073190;28;20405;-65
2021/07/13 02:32:16;;;;;;;4.87;4.60;;;16.90;99.90;;;;;;5073276;28;20400;-66
2021/07/13 02:34:44;;;;;;;4.77;4.40;;;16.90;99.90;;;;;;5073142;28;20406;-66
2021/07/13 02:37:13;;;;;;;4.50;4.20;;;16.90;99.90;;;;;;5071645;28;20967;-65
2021/07/13 02:39:40;;;;;;;4.33;3.93;;;16.90;99.90;;;;;;5072982;28;20398;-66
2021/07/13 02:42:06;;;;;;;4.27;3.97;;;16.90;99.90;;;;;;5072745;28;20445;-66
2021/07/13 02:44:34;;;;;;;5.03;4.60;;;16.90;99.90;;;;;;5072785;28;20397;-66
2021/07/13 02:47:07;;;;;;;4.40;4.10;;;16.90;99.90;;;;;;5072378;28;20486;-65
2021/07/13 02:49:38;;;;;;;4.77;4.33;;;16.90;99.90;;;;;;5072875;28;20397;-65
2021/07/13 02:52:05;;;;;;;4.60;4.20;;;16.90;99.90;;;;;;5072781;28;20409;-66
2021/07/13 02:54:31;;;;;;;4.40;4.10;;;16.90;99.90;;;;;;5072212;28;20406;-65
2021/07/13 02:57:00;;;;;;;4.40;4.10;;;16.90;99.90;;;;;;5072297;28;20428;-65
2021/07/13 02:59:28;;;;;;;4.97;4.43;;;16.90;99.90;;;;;;5072688;28;21019;-65
2021/07/13 03:01:54;;;;;;;4.00;3.70;;;16.90;99.90;;;;;;5072425;28;20453;-65
2021/07/13 03:04:20;;;;;;;4.80;4.50;;;16.90;99.90;;;;;;5072389;28;20397;-65
2021/07/13 03:06:47;;;;;;;4.97;4.60;;;16.90;99.90;;;;;;5072047;28;20421;-65
2021/07/13 03:09:13;;;;;;;7.20;4.80;;;16.90;99.90;;;;;;5072350;28;20408;-65
2021/07/13 03:11:40;;;;;;;5.33;4.70;;;16.80;99.90;;;;;;5072401;28;20398;-65
2021/07/13 03:14:08;;;;;;;5.43;4.93;;;16.90;99.90;;;;;;5072049;28;20754;-65
2021/07/13 03:16:35;;;;;;;4.07;3.80;;;16.90;99.90;;;;;;5070629;28;20512;-65
2021/07/13 03:19:02;;;;;;;4.80;4.50;;;16.90;99.90;;;;;;5072187;28;20413;-65
2021/07/13 03:21:30;;;;;;;5.30;4.40;;;16.90;99.90;;;;;;5072295;28;20438;-65
2021/07/13 03:24:00;;;;;;;4.20;3.90;;;16.90;99.90;;;;;;5072552;28;20401;-65
2021/07/13 03:26:33;;;;;;;4.30;4.00;;;16.80;99.90;;;;;;5072089;28;20421;-65
2021/07/13 03:29:00;;;;;;;4.90;4.50;;;16.80;99.90;;;;;;5072306;28;20385;-65
2021/07/13 03:31:27;;;;;;;5.10;4.70;;;16.80;99.90;;;;;;5071775;28;20406;-65
2021/07/13 03:34:00;;;;;;;4.70;4.40;;;16.80;99.90;;;;;;5072037;28;20961;-65
2021/07/13 03:36:26;;;;;;;5.47;5.07;;;16.80;99.90;;;;;;5071649;28;20441;-65
2021/07/13 03:38:52;;;;;;;5.57;5.17;;;16.80;99.90;;;;;;5072042;28;20406;-65
2021/07/13 03:41:19;;;;;;;4.27;3.97;;;16.80;99.90;;;;;;5072015;28;20552;-65
2021/07/13 03:43:44;;;;;;;5.67;5.17;;;16.80;99.90;;;;;;5071927;28;20163;-65
2021/07/13 03:46:11;;;;;;;5.37;4.90;;;16.80;99.90;;;;;;5071603;28;20416;-65
2021/07/13 03:48:37;;;;;;;4.70;4.40;;;16.70;99.90;;;;;;5071979;28;20437;-65
2021/07/13 03:51:03;;;;;;;4.80;4.40;;;16.70;99.90;;;;;;5071885;28;20942;-65
2021/07/13 03:53:29;;;;;;;4.47;4.17;;;16.70;99.90;;;;;;5071880;28;20437;-65
2021/07/13 03:55:54;;;;;;;4.57;4.27;;;16.70;99.90;;;;;;5071720;28;20184;-65
2021/07/13 03:58:20;;;;;;;5.27;4.83;;;16.70;99.90;;;;;;5071751;28;20546;-65
2021/07/13 04:00:46;;;;;;;4.40;4.10;;;16.70;99.90;;;;;;5071709;28;20199;-66
2021/07/13 04:03:11;;;;;;;4.20;3.90;;;16.70;99.90;;;;;;5071669;28;20635;-65
2021/07/13 04:05:37;;;;;;;5.97;5.37;;;16.70;99.90;;;;;;5071989;28;20636;-65
2021/07/13 04:08:04;;;;;;;5.17;4.77;;;16.70;99.90;;;;;;5071387;28;20187;-65
2021/07/13 04:10:29;;;;;;;6.43;4.80;;;16.60;99.90;;;;;;5071731;28;20171;-65
2021/07/13 04:12:55;;;;;;;5.80;4.43;;;16.70;99.90;;;;;;5071718;28;20398;-65
2021/07/13 04:15:21;;;;;;;4.63;4.20;;;16.70;99.90;;;;;;5071729;28;20182;-65
2021/07/13 04:17:47;;;;;;;5.70;5.40;;;16.70;99.90;;;;;;5071276;28;20290;-65
2021/07/13 04:20:13;;;;;;;5.00;4.60;;;16.70;99.90;;;;;;5071451;28;20455;-65
2021/07/13 04:22:41;;;;;;;5.33;4.37;;;16.60;99.90;;;;;;5071497;28;20489;-66
2021/07/13 04:25:07;;;;;;;5.03;4.50;;;16.60;99.90;;;;;;5072047;28;20178;-65
2021/07/13 04:27:33;;;;;;;4.67;4.20;;;16.60;99.90;;;;;;5071175;28;20425;-65
2021/07/13 04:29:58;;;;;;;5.43;4.90;;;16.60;99.90;;;;;;5071576;28;20897;-66
2021/07/13 04:32:24;;;;;;;4.77;4.47;;;16.60;99.90;;;;;;5071498;28;20174;-65
2021/07/13 04:34:49;;;;;;;7.23;5.47;;;16.70;99.90;;;;;;5071388;28;20272;-65
2021/07/13 04:37:15;;;;;;;4.73;4.33;;;16.60;99.90;;;;;;5071053;28;20562;-65
2021/07/13 04:39:41;;;;;;;4.97;4.50;;;16.60;99.90;;;;;;5071438;28;20217;-65
2021/07/13 04:42:06;;;;;;;4.83;4.53;;;16.70;99.90;;;;;;5071393;28;20540;-65
2021/07/13 04:44:32;;;;;;;5.50;4.97;;;16.70;99.90;;;;;;5074686;28;20170;-65
2021/07/13 04:46:57;;;;;;;5.50;5.00;;;16.70;99.90;;;;;;5074843;28;20190;-65
2021/07/13 04:49:25;;;;;;;5.40;4.87;;;16.70;99.90;;;;;;5075113;28;20167;-65
2021/07/13 04:51:51;;;;;;;5.40;5.00;;;16.70;99.90;;;;;;5075148;28;20671;-65
2021/07/13 04:54:16;;;;;;;5.73;5.27;;;16.60;99.90;;;;;;5075191;28;20467;-65
2021/07/13 04:56:42;;;;;;;4.97;4.60;;;16.60;99.90;;;;;;5074680;28;20191;-65
2021/07/13 04:59:08;;;;;;;8.97;4.97;;;16.60;99.90;;;;;;5075035;28;20175;-65
2021/07/13 05:01:33;;;;;;;5.13;4.73;;;16.70;99.90;;;;;;5074749;28;20202;-65
2021/07/13 05:03:59;;;;;;;5.50;5.10;;;16.70;99.90;;;;;;5074836;28;20692;-65
2021/07/13 05:06:24;;;;;;;6.00;5.50;;;16.70;99.90;;;;;;5074470;28;20183;-65
2021/07/13 05:08:50;;;;;;;10.60;9.67;;;16.70;99.90;;;;;;5074888;28;20243;-65
2021/07/13 05:11:15;;;;;;;8.63;7.83;;;16.70;99.90;;;;;;5075048;28;20191;-65
2021/07/13 05:13:41;;;;;;;7.83;7.13;;;16.70;99.90;;;;;;5074706;28;20182;-65
2021/07/13 05:16:07;;;;;;;5.43;5.03;;;16.70;99.90;;;;;;5074234;28;20250;-65
2021/07/13 05:18:34;;;;;;;5.60;5.20;;;16.70;99.90;;;;;;5075171;28;20171;-65
2021/07/13 05:21:03;;;;;;;5.10;4.70;;;16.70;99.90;;;;;;5074513;28;20191;-65
2021/07/13 05:23:29;;;;;;;5.00;4.70;;;16.80;99.90;;;;;;5074515;28;20489;-65
2021/07/13 05:25:55;;;;;;;6.20;5.70;;;16.80;99.90;;;;;;5074331;28;20489;-65
2021/07/13 05:28:20;;;;;;;5.90;5.40;;;16.70;99.90;;;;;;5074527;28;20163;-65
2021/07/13 05:30:46;;;;;;;4.90;4.50;;;16.70;99.90;;;;;;5074434;28;20176;-65
2021/07/13 05:33:14;;;;;;;5.20;4.80;;;16.70;99.90;;;;;;5074371;28;20194;-65
2021/07/13 05:35:42;;;;;;;5.63;5.10;;;16.70;99.90;;;;;;5074277;28;20406;-65
2021/07/13 05:38:08;;;;;;;5.40;5.00;;;16.70;99.90;;;;;;5073980;28;20425;-65
2021/07/13 05:40:34;;;;;;;6.70;6.20;;;16.70;99.90;;;;;;5074214;28;20665;-65
2021/07/13 05:42:59;;;;;;;6.60;6.00;;;16.70;99.90;;;;;;5074253;28;20901;-65
2021/07/13 05:45:25;;;;;;;5.97;5.47;;;16.70;99.90;;;;;;5074123;28;20160;-65
2021/07/13 05:47:51;;;;;;;7.23;6.10;;;16.70;99.90;;;;;;5073966;28;20187;-65
2021/07/13 05:50:17;;;;;;;5.43;5.03;;;16.70;99.90;;;;;;5074027;28;20217;-65
2021/07/13 05:52:43;;;;;;;6.30;5.80;;;16.70;99.90;;;;;;5073982;28;20811;-65
2021/07/13 05:55:09;;;;;;;7.57;6.80;;;16.80;99.90;;;;;;5073680;28;20176;-65
2021/07/13 05:57:35;;;;;;;7.00;6.40;;;16.80;99.90;;;;;;5073538;28;20425;-65
2021/07/13 06:00:02;;;;;;;7.63;6.93;;;16.80;99.90;;;;;;5073762;28;20424;-65
2021/07/13 06:02:28;;;;;;;6.20;5.60;;;16.80;99.90;;;;;;5073804;28;20215;-65
2021/07/13 06:04:53;;;;;;;5.70;4.70;;;16.80;99.90;;;;;;5072554;28;20408;-65
2021/07/13 06:07:19;;;;;;;3.27;3.07;;;16.90;99.90;;;;;;5072229;28;20188;-68
2021/07/13 06:09:44;;;;;;;3.70;3.30;;;17.10;99.90;;;;;;5073792;28;20171;-68
2021/07/13 06:12:10;;;;;;;5.50;4.87;;;17.30;99.90;;;;;;5073885;28;20671;-68
2021/07/13 06:14:38;;;;;;;7.50;6.80;;;17.40;99.90;;;;;;5073433;28;20171;-68
2021/07/13 06:17:05;;;;;;;6.30;5.80;;;17.50;99.90;;;;;;5073317;28;20757;-69
2021/07/13 06:19:31;;;;;;;3.60;3.30;;;17.60;99.90;;;;;;5074136;28;20789;-65
2021/07/13 06:21:56;;;;;;;6.57;6.07;;;17.70;99.90;;;;;;5073381;28;20464;-65
2021/07/13 06:24:22;;;;;;;3.70;3.30;;;17.60;99.90;;;;;;5073324;28;20179;-65
2021/07/13 06:26:48;;;;;;;7.73;6.93;;;17.80;99.90;;;;;;5073064;28;20215;-65
2021/07/13 06:29:13;;;;;;;3.70;3.40;;;18.00;99.90;;;;;;5073222;28;20199;-65
2021/07/13 06:31:39;;;;;;;7.10;6.40;;;18.00;99.90;;;;;;5073195;28;20175;-64
2021/07/13 06:34:04;;;;;;;6.73;6.03;;;18.10;99.90;;;;;;5073101;28;20731;-65
2021/07/13 06:36:30;;;;;;;5.93;5.43;;;18.20;99.90;;;;;;5072902;28;20187;-65
2021/07/13 06:38:56;;;;;;;6.97;6.43;;;18.20;99.90;;;;;;5073511;28;20199;-65
2021/07/13 06:41:21;;;;;;;5.80;5.40;;;18.10;99.90;;;;;;5073331;28;20508;-65
2021/07/13 06:43:47;;;;;;;11.67;10.50;;;18.20;99.90;;;;;;5072971;28;20176;-64
2021/07/13 06:46:12;;;;;;;5.20;4.70;;;18.20;99.90;;;;;;5072598;28;21517;-65
2021/07/13 06:48:38;;;;;;;7.13;6.43;;;18.20;99.90;;;;;;5072948;28;20170;-65
2021/07/13 06:51:04;;;;;;;7.50;6.80;;;18.30;99.90;;;;;;5073133;28;20167;-64
2021/07/13 06:53:29;;;;;;;10.30;9.20;;;18.20;99.90;;;;;;5073148;28;20225;-64
2021/07/13 06:55:55;;;;;;;5.80;5.40;;;18.20;99.90;;;;;;5072881;28;20654;-65
2021/07/13 06:58:20;;;;;;;7.73;7.03;;;18.20;99.90;;;;;;5073165;28;20175;-65
2021/07/13 07:00:46;;;;;;;9.77;8.97;;;18.20;99.90;;;;;;5072717;28;20298;-65
2021/07/13 07:03:12;;;;;;;6.83;6.23;;;18.10;99.90;;;;;;5072717;28;20246;-65
2021/07/13 07:05:37;;;;;;;10.63;9.63;;;18.10;99.90;;;;;;5072286;28;20166;-64
2021/07/13 07:08:03;;;;;;;7.87;6.87;;;18.10;99.90;;;;;;5072407;28;20262;-65
2021/07/13 07:10:29;;;;;;;8.73;7.83;;;18.00;99.90;;;;;;5072565;28;20163;-66
2021/07/13 07:12:54;;;;;;;8.07;7.43;;;18.00;99.90;;;;;;5072640;28;20775;-64
2021/07/13 07:15:20;;;;;;;7.90;7.27;;;18.00;99.90;;;;;;5072490;28;20169;-64
2021/07/13 07:17:50;;;;;;;11.13;8.83;;;18.10;99.90;;;;;;5072154;28;20258;-64
2021/07/13 07:20:20;;;;;;;7.37;6.80;;;18.10;99.90;;;;;;5072347;28;20669;-64
2021/07/13 07:22:45;;;;;;;10.60;8.53;;;18.10;99.90;;;;;;5072216;28;20947;-64
2021/07/13 07:25:11;;;;;;;10.73;9.77;;;18.20;99.90;;;;;;5072252;28;20405;-64
2021/07/13 07:27:38;;;;;;;9.80;8.80;;;18.10;99.90;;;;;;5071582;28;20431;-64
2021/07/13 07:30:09;;;;;;;6.07;5.67;;;18.10;99.90;;;;;;5072201;28;20163;-64
2021/07/13 07:32:36;;;;;;;7.70;7.03;;;18.10;99.90;;;;;;5072746;28;20496;-64
2021/07/13 07:35:02;;;;;;;8.90;8.10;;;18.10;99.90;;;;;;5073672;28;20406;-64
2021/07/13 07:37:28;;;;;;;9.40;8.60;;;18.10;99.90;;;;;;5073817;28;20417;-65
2021/07/13 07:39:54;;;;;;;8.87;8.03;;;18.10;99.90;;;;;;5074618;28;20940;-64
2021/07/13 07:42:19;;;;;;;7.13;6.60;;;18.10;99.90;;;;;;5073298;28;20666;-64
2021/07/13 07:44:45;;;;;;;6.43;5.90;;;18.10;99.90;;;;;;5072632;28;20214;-64
2021/07/13 07:47:10;;;;;;;6.50;5.90;;;18.10;99.90;;;;;;5074113;28;20236;-64
2021/07/13 07:49:36;;;;;;;5.30;4.37;;;18.10;99.90;;;;;;5073803;28;20248;-64
2021/07/13 07:52:02;;;;;;;10.27;9.47;;;18.20;99.90;;;;;;5075085;28;20266;-63
2021/07/13 07:54:28;;;;;;;9.03;8.23;;;18.30;99.90;;;;;;5073754;28;20183;-63
2021/07/13 07:56:54;;;;;;;8.97;6.97;;;18.30;99.90;;;;;;5072599;28;20433;-64
2021/07/13 07:59:21;;;;;;;6.37;5.87;;;18.30;99.90;;;;;;5072709;28;20405;-64
2021/07/13 08:01:47;;;;;;;7.53;6.73;;;18.30;99.90;;;;;;5072245;28;20592;-64
2021/07/13 08:04:13;;;;;;;9.00;8.30;;;18.20;99.90;;;;;;5072675;28;20406;-63
2021/07/13 08:06:38;;;;;;;7.17;6.43;;;18.30;99.90;;;;;;5072270;28;20421;-64
2021/07/13 08:09:07;;;;;;;6.03;5.60;;;18.20;99.90;;;;;;5072095;28;20167;-64
2021/07/13 08:11:33;;;;;;;6.63;6.03;;;18.20;99.90;;;;;;5072410;28;20182;-64
2021/07/13 08:14:00;;;;;;;4.77;4.37;;;18.30;99.90;;;;;;5072876;28;20429;-63
2021/07/13 08:16:26;;;;;;;8.40;7.67;;;18.20;99.90;;;;;;5072705;28;20437;-64
2021/07/13 08:18:52;;;;;;;7.83;7.23;;;18.30;99.90;;;;;;5076924;28;20401;-64
2021/07/13 08:21:19;;;;;;;6.60;6.03;;;18.30;99.90;;;;;;5076829;28;20448;-64
2021/07/13 08:23:46;;;;;;;6.13;5.63;;;18.40;99.90;;;;;;5076522;28;20913;-64
2021/07/13 08:26:12;;;;;;;6.60;6.10;;;18.30;99.90;;;;;;5076321;28;20425;-64
2021/07/13 08:28:38;;;;;;;7.37;6.67;;;18.20;99.90;;;;;;5076200;28;20978;-65
2021/07/13 08:31:03;;;;;;;8.33;7.63;;;18.20;99.90;;;;;;5076498;28;20693;-64
2021/07/13 08:33:29;;;;;;;7.30;6.60;;;18.20;99.90;;;;;;5077650;28;20179;-65
2021/07/13 08:35:54;;;;;;;7.60;7.00;;;18.20;99.90;;;;;;5075329;28;20179;-65
2021/07/13 08:38:20;;;;;;;5.43;5.07;;;18.20;99.90;;;;;;5075778;28;20654;-65
2021/07/13 08:40:46;;;;;;;5.50;5.10;;;18.10;99.90;;;;;;5076506;28;20671;-63
2021/07/13 08:43:12;;;;;;;6.30;5.90;;;18.20;99.90;;;;;;5076492;28;20570;-65
2021/07/13 08:45:38;;;;;;;8.17;7.47;;;18.30;99.90;;;;;;5076919;28;20405;-65
2021/07/13 08:48:04;;;;;;;7.20;6.60;;;18.20;99.90;;;;;;5075572;28;20754;-64
2021/07/13 08:50:31;;;;;;;5.03;4.73;;;18.30;99.90;;;;;;5076037;28;20159;-66
2021/07/13 08:52:56;;;;;;;7.50;7.00;;;18.30;99.90;;;;;;5075446;28;20481;-68
2021/07/13 08:55:23;;;;;;;8.37;7.67;;;18.30;99.90;;;;;;5075322;28;20486;-67
2021/07/13 08:57:48;;;;;;;5.80;4.90;;;18.20;99.90;;;;;;5075086;28;20183;-68
2021/07/13 09:00:17;;;;;;;6.37;5.90;;;18.20;99.90;;;;;;5075158;28;20432;-68
2021/07/13 09:03:03;;;;;;;9.03;8.23;;;18.20;99.90;;;;;;5075317;28;20171;-68
2021/07/13 09:05:28;;;;;;;9.47;8.60;;;18.20;99.90;;;;;;5075361;28;20397;-66
2021/07/13 09:07:54;;;;;;;7.23;6.60;;;18.20;99.90;;;;;;5074933;28;20425;-68
2021/07/13 09:10:19;;;;;;;6.77;6.17;;;18.10;99.90;;;;;;5075152;28;20647;-68
2021/07/13 09:12:48;;;;;;;4.93;4.63;;;18.10;99.90;;;;;;5075013;28;20541;-68
2021/07/13 09:15:18;;;;;;;6.30;5.80;;;18.20;99.90;;;;;;5074903;28;20163;-69
2021/07/13 09:17:45;;;;;;;6.77;6.07;;;18.20;99.90;;;;;;5075618;28;20421;-67
2021/07/13 09:20:23;;;;;;;5.50;5.10;;;18.20;99.90;;;;;;5076075;28;20539;-68
2021/07/13 09:23:04;;;;;;;5.97;5.30;;;18.20;99.90;;;;;;5074916;28;20402;-68
2021/07/13 09:25:50;;;;;;;5.70;5.30;;;18.30;99.90;;;;;;5075108;28;20898;-65
2021/07/13 09:28:21;;;;;;;4.20;3.90;;;18.30;99.90;;;;;;5073876;28;20409;-71
2021/07/13 09:30:50;;;;;;;4.40;4.10;;;18.40;99.90;;;;;;5074447;28;20496;-66
2021/07/13 09:33:24;;;;;;;5.00;4.60;;;18.40;99.90;;;;;;5074502;28;20401;-65
2021/07/13 09:36:09;;;;;;;4.50;4.20;;;18.50;99.90;;;;;;5074438;28;20497;-67
2021/07/13 09:38:40;;;;;;;6.07;5.50;;;18.40;99.90;;;;;;5074452;28;20410;-65
2021/07/13 09:41:14;;;;;;;6.27;5.77;;;18.40;99.90;;;;;;5074414;28;21043;-66
2021/07/13 09:43:42;;;;;;;5.53;4.50;;;18.40;99.90;;;;;;5074391;28;20405;-67
2021/07/13 09:46:22;;;;;;;6.47;5.97;;;18.30;99.90;;;;;;5073783;28;20401;-65
2021/07/13 09:49:20;;;;;;;5.47;5.10;;;18.30;99.90;;;;;;5074169;28;20405;-65
2021/07/13 09:52:02;;;;;;;6.67;6.17;;;18.20;99.90;;;;;;5074579;28;20433;-64
2021/07/13 09:54:41;;;;;;;7.33;6.67;;;18.20;99.90;;;;;;5074572;28;20409;-64
2021/07/13 09:57:14;;;;;;;5.93;5.53;;;18.10;99.90;;;;;;5074324;28;21017;-64
2021/07/13 09:59:41;;;;;;;6.83;6.30;;;18.10;99.90;;;;;;5074428;28;20413;-64
2021/07/13 10:02:09;;;;;;;5.33;4.93;;;18.00;99.90;;;;;;5075044;28;20461;-64
2021/07/13 10:04:36;;;;;;;6.93;6.33;;;18.10;99.90;;;;;;5074869;28;20488;-64
2021/07/13 10:07:09;;;;;;;8.77;7.97;;;18.10;99.90;;;;;;5075146;28;20767;-64
2021/07/13 10:09:45;;;;;;;7.90;7.30;;;18.00;99.90;;;;;;5074524;28;20409;-64
2021/07/13 10:12:14;;;;;;;8.63;7.67;;;17.90;99.90;;;;;;5075872;28;20401;-64
2021/07/13 10:14:45;;;;;;;8.13;7.53;;;17.90;99.90;;;;;;5074861;28;20428;-64
2021/07/13 10:17:11;;;;;;;5.47;5.07;;;17.90;99.90;;;;;;5073372;28;20426;-64
2021/07/13 10:19:49;;;;;;;7.40;6.80;;;18.00;99.90;;;;;;5073726;28;20417;-65
2021/07/13 10:22:16;;;;;;;6.20;5.70;;;18.10;99.90;;;;;;5073989;28;20515;-64
2021/07/13 10:24:44;;;;;;;6.87;6.40;;;18.00;99.90;;;;;;5073477;28;20914;-64
2021/07/13 10:27:14;;;;;;;7.43;6.83;;;18.00;99.90;;;;;;5073079;28;20735;-65
2021/07/13 10:29:41;;;;;;;8.73;8.00;;;18.00;99.90;;;;;;5073369;28;20432;-66
2021/07/13 10:32:08;;;;;;;5.83;5.40;;;18.00;99.90;;;;;;5073992;28;20413;-65
2021/07/13 10:34:49;;;;;;;7.97;7.30;;;18.00;99.90;;;;;;5073273;28;20591;-65
2021/07/13 10:37:38;;;;;;;7.90;7.30;;;18.00;99.90;;;;;;5072705;28;20521;-65
2021/07/13 10:40:05;;;;;;;5.50;5.10;;;18.00;99.90;;;;;;5072928;28;20763;-65
2021/07/13 10:42:40;;;;;;;5.57;5.07;;;18.00;99.90;;;;;;5073528;28;20598;-65
2021/07/13 10:45:19;;;;;;;5.43;5.03;;;18.00;99.90;;;;;;5074275;28;20931;-64
2021/07/13 10:47:56;;;;;;;5.93;5.50;;;18.10;99.90;;;;;;5072815;28;21496;-66
2021/07/13 10:50:21;;;;;;;7.07;6.57;;;18.10;99.90;;;;;;5073249;28;20405;-66
2021/07/13 10:52:57;;;;;;;5.80;5.30;;;18.10;99.90;;;;;;5073020;28;20954;-66
2021/07/13 10:56:11;;;;;;;5.97;5.57;;;18.20;99.90;;;;;;5072924;28;20254;-65
2021/07/13 10:58:51;;;;;;;6.33;5.83;;;18.30;99.90;;;;;;5068827;28;20452;-67
2021/07/13 11:01:26;;;;;;;6.87;6.27;;;18.30;99.90;;;;;;5072743;28;20855;-66
2021/07/13 11:04:03;;;;;;;5.77;5.30;;;18.40;99.90;;;;;;5073109;28;20412;-66
2021/07/13 11:06:53;;;;;;;4.90;4.60;;;18.40;99.90;;;;;;5072490;28;20924;-66
2021/07/13 11:09:23;;;;;;;5.90;5.40;;;18.50;99.90;;;;;;5072780;28;20770;-66
2021/07/13 11:11:49;;;;;;;5.53;5.13;;;18.50;99.90;;;;;;5072738;28;20405;-66
2021/07/13 11:14:15;;;;;;;5.90;5.33;;;18.50;99.90;;;;;;5072396;28;20467;-66
2021/07/13 11:16:43;;;;;;;7.00;6.40;;;18.50;99.90;;;;;;5071967;28;20425;-66
2021/07/13 11:19:17;;;;;;;5.40;5.00;;;18.60;99.90;;;;;;5072786;28;20402;-66
2021/07/13 11:21:51;;;;;;;7.07;5.70;;;18.60;99.90;;;;;;5072907;28;20449;-66
2021/07/13 11:24:21;;;;;;;4.47;4.17;;;18.70;99.90;;;;;;5072663;28;20786;-65
2021/07/13 11:26:50;;;;;;;4.93;4.53;;;18.80;99.90;;;;;;5072065;28;20469;-65
2021/07/13 11:29:24;;;;;;;4.30;4.00;;;18.80;99.90;;;;;;5072350;28;20745;-66
2021/07/13 11:32:02;;;;;;;4.60;4.20;;;18.80;99.90;;;;;;5072239;28;20397;-66
2021/07/13 11:34:36;;;;;;;4.57;4.17;;;18.80;99.90;;;;;;5072288;28;20405;-65
2021/07/13 11:37:03;;;;;;;6.23;5.73;;;18.90;99.90;;;;;;5071962;28;20625;-66
2021/07/13 11:39:32;;;;;;;6.20;5.80;;;18.90;99.90;;;;;;5072063;28;20454;-65
2021/07/13 11:42:02;;;;;;;8.37;6.67;;;19.00;99.90;;;;;;5071960;28;20527;-66
2021/07/13 11:44:28;;;;;;;6.90;6.30;;;19.00;99.90;;;;;;5072282;28;20539;-66
2021/07/13 11:46:55;;;;;;;6.17;5.77;;;19.00;99.90;;;;;;5071747;28;20429;-66
2021/07/13 11:49:26;;;;;;;7.10;6.50;;;19.00;99.90;;;;;;5072175;28;20437;-66
2021/07/13 11:51:54;;;;;;;8.47;7.80;;;18.90;99.90;;;;;;5071732;28;20409;-66
2021/07/13 11:54:25;;;;;;;6.40;6.00;;;18.90;99.90;;;;;;5071973;28;20401;-65
2021/07/13 11:56:54;;;;;;;6.70;6.30;;;18.80;99.90;;;;;;5071724;28;20436;-66
2021/07/13 11:59:21;;;;;;;6.10;5.70;;;18.80;99.90;;;;;;5072167;28;20500;-66
2021/07/13 12:01:54;;;;;;;7.87;7.13;;;18.70;99.90;;;;;;5071852;28;20468;-66
2021/07/13 12:04:25;;;;;;;5.73;5.43;;;18.70;99.90;;;;;;5071890;28;20521;-66
2021/07/13 12:07:00;;;;;;;8.00;7.40;;;18.70;99.90;;;;;;5071434;28;20430;-65
2021/07/13 12:09:30;;;;;;;6.30;5.90;;;18.70;99.90;;;;;;5071771;28;20466;-67
2021/07/13 12:12:03;;;;;;;7.37;6.77;;;18.70;99.90;;;;;;5072297;28;20801;-66
2021/07/13 12:14:29;;;;;;;8.33;7.73;;;18.80;99.90;;;;;;5072630;28;20402;-65
2021/07/13 12:16:57;;;;;;;7.80;7.20;;;18.80;99.90;;;;;;5071815;28;20771;-65
2021/07/13 12:19:24;;;;;;;7.50;6.90;;;18.80;99.90;;;;;;5071673;28;20654;-64
2021/07/13 12:21:57;;;;;;;8.03;7.20;;;18.90;99.90;;;;;;5071985;28;20633;-65
2021/07/13 12:24:30;;;;;;;10.17;9.40;;;18.90;99.90;;;;;;5072693;28;20401;-65
2021/07/13 12:26:57;;;;;;;10.70;9.80;;;18.90;99.90;;;;;;5071985;28;20513;-64
2021/07/13 12:29:33;;;;;;;8.47;7.77;;;18.90;99.90;;;;;;5072099;28;20437;-64
2021/07/13 12:32:00;;;;;;;8.43;7.70;;;18.80;99.90;;;;;;5072193;28;20405;-64
2021/07/13 12:34:42;;;;;;;10.07;9.27;;;18.80;99.90;;;;;;5073052;28;20492;-64
2021/07/13 12:37:10;;;;;;;7.80;7.10;;;18.70;99.90;;;;;;5071402;28;20433;-64
2021/07/13 12:39:38;;;;;;;8.00;7.37;;;18.70;99.90;;;;;;5072550;28;20421;-64
2021/07/13 12:42:08;;;;;;;7.47;6.87;;;18.70;99.90;;;;;;5071896;28;20944;-64
2021/07/13 12:44:51;;;;;;;10.50;9.23;;;18.70;99.90;;;;;;5072354;28;20402;-63
2021/07/13 12:47:17;;;;;;;9.57;8.77;;;18.80;99.90;;;;;;5071429;28;20425;-63
2021/07/13 12:49:44;;;;;;;12.37;10.17;;;18.80;99.90;;;;;;5071699;28;20404;-61
2021/07/13 12:52:13;;;;;;;11.30;10.30;;;18.80;99.90;;;;;;5071689;28;20611;-63
2021/07/13 12:54:58;;;;;;;10.10;9.13;;;18.90;99.90;;;;;;5071950;28;20433;-64